Time;durP1;ratioP1;P1;durP2;ratioP2;P2;SDS_P1;SDS_P2;PMS_P1;PMS_P2;Temp;Humidity;BMP_temperature;BMP_pressure;BME280_temperature;BME280_humidity;BME280_pressure;Samples;Min_cycle;Max_cycle;Signal;HPM_P1;HPM_P2
2022/04/28 00:03:57;;;;;;;;;;;;;;;21.18;36.45;96380.41;10382912;28;1988;-44
2022/04/28 00:08:58;;;;;;;;;;;;;;;21.20;36.12;96382.78;10372351;28;2337;-43
2022/04/28 00:13:59;;;;;;;;;;;;;;;21.17;36.08;96372.75;10378012;28;2080;-47
2022/04/28 00:19:00;;;;;;;;;;;;;;;21.17;36.21;96376.19;10384537;28;2083;-44
2022/04/28 00:24:00;;;;;;;;;;;;;;;21.17;36.14;96376.19;10399582;28;2253;-42
2022/04/28 00:29:00;;;;;;;;;;;;;;;21.19;35.98;96370.63;10391489;28;2025;-43
2022/04/28 00:34:01;;;;;;;;;;;;;;;21.17;35.96;96368.28;10385094;28;2476;-43
2022/04/28 00:39:01;;;;;;;;;;;;;;;21.17;36.14;96373.53;10381978;28;2480;-44
2022/04/28 00:44:01;;;;;;;;;;;;;;;21.21;36.06;96376.44;10390631;28;1980;-47
2022/04/28 00:54:22;;;;;;;;;;;;;;;21.22;36.28;96383.31;10389449;28;2546;-47
2022/04/28 00:59:23;;;;;;;;;;;;;;;21.21;36.14;96371.16;10388377;28;2476;-43
2022/04/28 01:04:23;;;;;;;;;;;;;;;21.22;35.98;96370.13;10375572;28;2056;-43
2022/04/28 01:09:23;;;;;;;;;;;;;;;21.20;36.23;96369.59;10367890;28;2001;-44
2022/04/28 01:14:24;;;;;;;;;;;;;;;21.22;36.19;96368.28;10371598;28;2482;-44
2022/04/28 01:19:24;;;;;;;;;;;;;;;21.20;36.51;96365.13;10370478;28;2029;-43
2022/04/28 01:24:24;;;;;;;;;;;;;;;21.20;36.09;96365.13;10382184;28;2076;-43
2022/04/28 01:29:26;;;;;;;;;;;;;;;21.20;35.91;96359.84;10370977;28;2079;-46
2022/04/28 01:34:26;;;;;;;;;;;;;;;21.21;36.20;96361.41;10383334;28;2202;-42
2022/04/28 01:39:27;;;;;;;;;;;;;;;21.23;36.25;96354.03;10391449;28;2505;-42
2022/04/28 01:44:27;;;;;;;;;;;;;;;21.21;36.04;96355.34;10392483;28;2048;-43
2022/04/28 01:49:27;;;;;;;;;;;;;;;21.21;36.24;96356.13;10379609;28;1981;-42
2022/04/28 01:59:47;;;;;;;;;;;;;;;21.23;35.97;96358.50;10377280;28;2331;-42
2022/04/28 02:04:48;;;;;;;;;;;;;;;21.26;35.58;96358.00;10376417;28;2314;-44
2022/04/28 02:09:48;;;;;;;;;;;;;;;21.25;35.73;96359.84;10372286;28;2187;-43
2022/04/28 02:14:48;;;;;;;;;;;;;;;21.27;35.73;96372.78;10375647;28;2188;-43
2022/04/28 02:19:49;;;;;;;;;;;;;;;21.25;35.62;96372.22;10380502;28;1965;-45
2022/04/28 02:24:50;;;;;;;;;;;;;;;21.23;36.05;96376.97;10376430;28;2529;-43
2022/04/28 02:29:51;;;;;;;;;;;;;;;21.22;35.85;96378.84;10398547;28;2032;-46
2022/04/28 02:34:52;;;;;;;;;;;;;;;21.22;35.67;96380.66;10399083;28;2572;-43
2022/04/28 02:39:52;;;;;;;;;;;;;;;21.22;36.08;96381.47;10384842;28;2271;-42
2022/04/28 02:44:52;;;;;;;;;;;;;;;21.23;35.65;96385.66;10399839;28;1981;-47
2022/04/28 02:49:53;;;;;;;;;;;;;;;21.24;35.66;96375.94;10376276;28;2239;-46
2022/04/28 02:54:53;;;;;;;;;;;;;;;21.24;35.56;96378.56;10395961;28;2211;-42
2022/04/28 02:59:53;;;;;;;;;;;;;;;21.24;35.60;96378.56;10380760;28;1977;-43
2022/04/28 03:04:54;;;;;;;;;;;;;;;21.24;35.70;96378.56;10401923;28;2545;-44
2022/04/28 03:15:13;;;;;;;;;;;;;;;21.26;35.44;96379.09;10378838;28;2647;-45
2022/04/28 03:20:15;;;;;;;;;;;;;;;21.25;35.10;96380.13;10386749;28;1976;-44
2022/04/28 03:25:15;;;;;;;;;;;;;;;21.30;34.98;96385.41;10390332;28;2167;-42
2022/04/28 03:30:16;;;;;;;;;;;;;;;21.28;34.84;96390.97;10379967;28;2458;-42
2022/04/28 03:35:16;;;;;;;;;;;;;;;21.30;35.52;96395.97;10387255;28;2413;-43
2022/04/28 03:40:17;;;;;;;;;;;;;;;21.30;35.33;96394.13;10377805;28;1917;-43
2022/04/28 03:45:18;;;;;;;;;;;;;;;21.30;35.28;96395.97;10375412;28;2073;-46
2022/04/28 03:50:18;;;;;;;;;;;;;;;21.27;35.42;96393.88;10383303;28;2538;-43
2022/04/28 03:55:18;;;;;;;;;;;;;;;21.27;35.32;96401.78;10396716;28;1961;-48
2022/04/28 04:00:19;;;;;;;;;;;;;;;21.23;35.40;96408.59;10375079;28;2559;-46
2022/04/28 04:05:19;;;;;;;;;;;;;;;21.23;35.18;96411.25;10386941;28;2048;-43
2022/04/28 04:10:20;;;;;;;;;;;;;;;21.22;35.25;96414.94;10382651;28;1999;-46
2022/04/28 04:15:21;;;;;;;;;;;;;;;21.20;35.26;96417.06;10400961;28;1985;-42
2022/04/28 04:20:21;;;;;;;;;;;;;;;21.20;35.25;96423.13;10401814;28;1985;-45
2022/04/28 04:25:21;;;;;;;;;;;;;;;21.20;35.08;96419.69;10396921;28;2036;-43
2022/04/28 04:35:41;;;;;;;;;;;;;;;21.22;35.28;96426.28;10390796;28;2511;-48
2022/04/28 04:40:41;;;;;;;;;;;;;;;21.22;34.99;96434.19;10392141;28;2330;-42
2022/04/28 04:45:44;;;;;;;;;;;;;;;21.22;34.94;96430.75;10390968;28;2072;-42
2022/04/28 04:50:44;;;;;;;;;;;;;;;21.21;35.01;96437.88;10382771;28;1831;-42
2022/04/28 04:55:45;;;;;;;;;;;;;;;21.19;35.31;96442.63;10406535;28;2484;-43
2022/04/28 05:00:46;;;;;;;;;;;;;;;21.20;35.26;96453.97;10384583;28;2342;-45
2022/04/28 05:05:46;;;;;;;;;;;;;;;21.20;35.38;96460.03;10402265;28;1989;-48
2022/04/28 05:10:46;;;;;;;;;;;;;;;21.20;35.30;96460.03;10378439;28;2499;-45
2022/04/28 05:15:48;;;;;;;;;;;;;;;21.19;35.31;96468.19;10377798;28;1973;-45
2022/04/28 05:20:50;;;;;;;;;;;;;;;21.18;35.63;96469.25;10386189;28;2032;-45
2022/04/28 05:25:50;;;;;;;;;;;;;;;21.18;35.46;96471.88;10400651;28;2024;-47
2022/04/28 05:30:51;;;;;;;;;;;;;;;21.18;35.42;96485.88;10404147;28;2580;-45
2022/04/28 05:35:52;;;;;;;;;;;;;;;21.18;35.39;96485.06;10413533;28;2201;-45
2022/04/28 05:40:52;;;;;;;;;;;;;;;21.19;35.45;96489.28;10414568;28;1914;-46
2022/04/28 05:45:52;;;;;;;;;;;;;;;21.17;35.30;96489.53;10397899;28;2084;-44
2022/04/28 05:50:53;;;;;;;;;;;;;;;21.16;35.38;96495.88;10401886;28;2367;-44
2022/04/28 05:55:53;;;;;;;;;;;;;;;21.12;34.56;96496.66;10396417;28;2234;-46
2022/04/28 06:00:53;;;;;;;;;;;;;;;20.95;34.68;96499.47;10393117;28;2105;-42
2022/04/28 06:05:54;;;;;;;;;;;;;;;20.83;34.67;96507.59;10398308;28;2141;-44
2022/04/28 06:10:57;;;;;;;;;;;;;;;20.74;34.74;96509.13;10379236;28;2192;-46
2022/04/28 06:15:58;;;;;;;;;;;;;;;20.62;34.80;96520.91;10386930;28;2041;-41
2022/04/28 06:20:58;;;;;;;;;;;;;;;20.48;34.50;96525.03;10391037;28;2428;-45
2022/04/28 06:26:00;;;;;;;;;;;;;;;20.45;34.67;96526.31;10382764;28;2364;-45
2022/04/28 06:31:01;;;;;;;;;;;;;;;20.59;34.20;96527.47;10379967;28;2265;-45
2022/04/28 06:36:01;;;;;;;;;;;;;;;20.73;33.68;96525.19;10409159;28;2171;-43
2022/04/28 06:41:01;;;;;;;;;;;;;;;20.82;33.47;96532.34;10393326;28;2199;-45
2022/04/28 06:46:12;;;;;;;;;;;;;;;20.89;33.08;96532.91;10409933;28;2346;-43
2022/04/28 06:51:12;;;;;;;;;;;;;;;20.94;33.09;96540.81;10395714;28;2048;-42
2022/04/28 06:56:13;;;;;;;;;;;;;;;21.01;33.23;96541.41;10404772;28;2215;-42
2022/04/28 07:01:13;;;;;;;;;;;;;;;21.08;33.35;96543.03;10395712;28;2223;-45
2022/04/28 07:06:14;;;;;;;;;;;;;;;21.10;32.83;96548.84;10386317;28;2230;-44
2022/04/28 07:11:15;;;;;;;;;;;;;;;21.13;32.43;96550.94;10404778;28;2246;-44
2022/04/28 07:16:15;;;;;;;;;;;;;;;21.16;32.58;96551.25;10397644;28;2204;-45
2022/04/28 07:21:15;;;;;;;;;;;;;;;21.18;32.81;96554.41;10403503;28;2188;-47
2022/04/28 07:26:15;;;;;;;;;;;;;;;21.21;32.60;96558.34;10397246;28;2277;-47
2022/04/28 07:31:16;;;;;;;;;;;;;;;21.24;32.89;96557.84;10389018;28;2301;-44
2022/04/28 07:36:16;;;;;;;;;;;;;;;21.29;32.78;96563.94;10383344;28;1466;-43
2022/04/28 07:41:17;;;;;;;;;;;;;;;21.30;32.29;96554.19;10398512;28;1993;-48
2022/04/28 07:46:18;;;;;;;;;;;;;;;21.32;33.10;96567.91;10381654;28;2665;-47
2022/04/28 07:51:19;;;;;;;;;;;;;;;21.34;32.60;96560.53;10395374;28;2029;-43
2022/04/28 07:56:20;;;;;;;;;;;;;;;21.39;33.21;96565.84;10388194;28;1887;-47
2022/04/28 08:01:21;;;;;;;;;;;;;;;21.40;32.95;96564.75;10407200;28;2287;-42
2022/04/28 08:06:21;;;;;;;;;;;;;;;21.41;32.57;96569.00;10403820;28;2643;-46
2022/04/28 08:11:22;;;;;;;;;;;;;;;21.47;33.08;96570.59;10403204;28;1937;-48
2022/04/28 08:16:22;;;;;;;;;;;;;;;21.47;32.76;96573.25;10402817;28;2490;-44
2022/04/28 08:21:24;;;;;;;;;;;;;;;21.50;32.84;96570.88;10394837;28;1902;-48
2022/04/28 08:26:25;;;;;;;;;;;;;;;21.47;32.91;96570.59;10399621;28;2076;-44
2022/04/28 08:31:26;;;;;;;;;;;;;;;21.51;33.52;96585.66;10385234;28;2071;-45
2022/04/28 08:36:26;;;;;;;;;;;;;;;21.56;33.88;96569.84;10414549;28;2503;-44
2022/04/28 08:41:31;;;;;;;;;;;;;;;21.59;33.92;96587.00;10388598;28;1979;-43
2022/04/28 08:51:52;;;;;;;;;;;;;;;20.93;32.36;96576.16;10408051;28;2147;-42
2022/04/28 08:56:54;;;;;;;;;;;;;;;20.89;32.38;96584.81;10388566;28;2104;-43
2022/04/28 09:01:55;;;;;;;;;;;;;;;20.86;32.20;96580.84;10377422;28;1990;-44
2022/04/28 09:06:55;;;;;;;;;;;;;;;20.98;32.81;96588.53;10376143;28;2488;-46
2022/04/28 09:11:59;;;;;;;;;;;;;;;21.19;32.89;96586.81;10411456;28;1977;-48
2022/04/28 09:17:00;;;;;;;;;;;;;;;21.35;33.05;96591.13;10379963;28;2501;-46
2022/04/28 09:22:03;;;;;;;;;;;;;;;21.40;33.12;96585.88;10385432;28;2539;-43
2022/04/28 09:27:03;;;;;;;;;;;;;;;21.43;33.58;96590.63;10373884;28;2463;-46
2022/04/28 09:32:10;;;;;;;;;;;;;;;21.48;33.25;96598.56;10377933;28;2092;-44
2022/04/28 09:37:16;;;;;;;;;;;;;;;21.45;33.44;96589.31;10389740;28;2546;-45
2022/04/28 09:42:29;;;;;;;;;;;;;;;21.47;33.69;96595.16;10362333;28;1944;-46
2022/04/28 09:47:31;;;;;;;;;;;;;;;21.45;33.80;96599.84;10376574;28;2496;-42
2022/04/28 09:52:32;;;;;;;;;;;;;;;21.48;34.05;96582.72;10393747;28;2032;-48
2022/04/28 09:57:33;;;;;;;;;;;;;;;21.47;34.35;96581.16;10401616;28;2308;-48
2022/04/28 10:02:34;;;;;;;;;;;;;;;21.43;34.91;96586.13;10372901;28;2177;-44
2022/04/28 10:07:36;;;;;;;;;;;;;;;21.47;35.51;96581.16;10371048;28;2250;-47
2022/04/28 10:12:38;;;;;;;;;;;;;;;21.51;36.43;96583.03;10380017;28;2184;-44
2022/04/28 10:17:59;;;;;;;;;;;;;;;21.53;36.94;96585.41;10378192;28;2257;-47
2022/04/28 10:22:59;;;;;;;;;;;;;;;21.50;37.53;96584.06;10390359;28;2270;-45
2022/04/28 10:33:42;;;;;;;;;;;;;;;21.50;37.67;96584.06;10306494;28;2244;-47
2022/04/28 10:39:01;;;;;;;;;;;;;;;21.51;37.44;96584.88;10402538;28;2344;-44
2022/04/28 10:44:15;;;;;;;;;;;;;;;21.47;37.69;96579.31;10379422;28;2284;-47
2022/04/28 10:49:23;;;;;;;;;;;;;;;21.48;36.35;96601.19;10385084;28;2358;-47
2022/04/28 10:54:24;;;;;;;;;;;;;;;21.35;33.74;96589.28;10373670;28;2093;-44
2022/04/28 10:59:25;;;;;;;;;;;;;;;21.14;32.15;96595.53;10382123;28;2238;-43
2022/04/28 11:04:25;;;;;;;;;;;;;;;20.96;31.09;96593.28;10380968;28;2362;-47
2022/04/28 11:09:36;;;;;;;;;;;;;;;20.86;30.84;96596.66;10385268;28;2249;-43
2022/04/28 11:14:43;;;;;;;;;;;;;;;21.08;33.33;96595.75;10356695;28;2272;-46
2022/04/28 11:19:44;;;;;;;;;;;;;;;21.17;33.66;96600.28;10379694;28;2248;-45
2022/04/28 11:24:45;;;;;;;;;;;;;;;21.20;34.04;96596.34;10393920;28;2153;-43
2022/04/28 11:29:46;;;;;;;;;;;;;;;21.23;33.80;96595.81;10370563;28;2198;-45
2022/04/28 11:34:48;;;;;;;;;;;;;;;21.28;34.07;96580.03;10376260;28;2116;-49
2022/04/28 11:39:49;;;;;;;;;;;;;;;21.28;34.05;96590.56;10375098;28;2356;-45
2022/04/28 11:44:51;;;;;;;;;;;;;;;21.32;34.00;96581.09;10376554;28;2213;-48
2022/04/28 11:49:58;;;;;;;;;;;;;;;21.33;34.09;96590.59;10386435;28;2415;-48
2022/04/28 11:55:01;;;;;;;;;;;;;;;21.35;34.00;96599.81;10372701;28;2159;-49
2022/04/28 12:00:03;;;;;;;;;;;;;;;21.43;33.88;96596.69;10401619;28;2154;-43
2022/04/28 12:05:16;;;;;;;;;;;;;;;21.42;33.62;96589.84;10375056;28;2258;-46
2022/04/28 12:15:45;;;;;;;;;;;;;;;21.47;34.03;96592.50;10371581;28;2321;-43
2022/04/28 12:20:51;;;;;;;;;;;;;;;21.49;34.41;96594.88;10366615;28;2294;-42
2022/04/28 12:25:51;;;;;;;;;;;;;;;21.48;34.38;96593.28;10396083;28;2200;-46
2022/04/28 12:30:54;;;;;;;;;;;;;;;21.52;34.31;96600.41;10392958;28;2044;-47
2022/04/28 12:35:58;;;;;;;;;;;;;;;21.54;34.23;96594.88;10398136;28;2224;-44
2022/04/28 12:41:11;;;;;;;;;;;;;;;21.58;34.28;96588.03;10380562;28;2192;-48
2022/04/28 12:46:15;;;;;;;;;;;;;;;21.63;33.54;96586.22;10403363;28;2185;-46
2022/04/28 12:51:19;;;;;;;;;;;;;;;21.64;33.50;96581.72;10396921;28;2537;-46
2022/04/28 12:56:29;;;;;;;;;;;;;;;21.65;33.45;96580.69;10375919;28;1678;-45
2022/04/28 13:01:29;;;;;;;;;;;;;;;21.64;33.45;96574.59;10378399;28;1922;-48
2022/04/28 13:06:30;;;;;;;;;;;;;;;21.65;33.33;96575.41;10376741;28;2188;-45
2022/04/28 13:11:31;;;;;;;;;;;;;;;21.56;31.08;96574.31;10389639;28;2141;-43
2022/04/28 13:16:32;;;;;;;;;;;;;;;21.44;31.60;96571.09;10383360;28;2468;-48
2022/04/28 13:21:34;;;;;;;;;;;;;;;21.55;32.99;96564.81;10395687;28;2228;-45
2022/04/28 13:26:34;;;;;;;;;;;;;;;21.54;33.07;96560.59;10386917;28;2300;-45
2022/04/28 13:31:37;;;;;;;;;;;;;;;21.58;33.00;96553.75;10415715;28;2211;-43
2022/04/28 13:36:38;;;;;;;;;;;;;;;21.59;32.97;96553.50;10383310;28;2275;-47
2022/04/28 13:41:38;;;;;;;;;;;;;;;21.62;32.63;96546.88;10379143;28;2199;-48
2022/04/28 13:46:39;;;;;;;;;;;;;;;21.63;32.80;96543.22;10381727;28;2235;-44
2022/04/28 13:51:39;;;;;;;;;;;;;;;21.61;32.83;96546.13;10380568;28;2319;-45
2022/04/28 13:56:40;;;;;;;;;;;;;;;21.65;32.82;96533.19;10399424;28;2175;-45
2022/04/28 14:01:41;;;;;;;;;;;;;;;21.65;32.51;96535.81;10379700;28;2220;-47
2022/04/28 14:06:41;;;;;;;;;;;;;;;21.65;32.67;96522.63;10389030;28;2296;-44
2022/04/28 14:11:41;;;;;;;;;;;;;;;21.65;32.56;96520.00;10389672;28;2268;-45
2022/04/28 14:16:42;;;;;;;;;;;;;;;21.57;32.55;96529.22;10411093;28;2203;-43
2022/04/28 14:21:43;;;;;;;;;;;;;;;21.53;32.77;96516.81;10397755;28;2183;-46
2022/04/28 14:26:43;;;;;;;;;;;;;;;21.48;32.67;96520.22;10394114;28;2328;-43
2022/04/28 14:31:43;;;;;;;;;;;;;;;21.48;32.81;96520.22;10375804;28;2213;-42
2022/04/28 14:36:43;;;;;;;;;;;;;;;21.47;32.89;96525.75;10379345;28;2199;-43
2022/04/28 14:41:44;;;;;;;;;;;;;;;21.45;32.95;96518.09;10401399;28;2194;-46
2022/04/28 14:46:45;;;;;;;;;;;;;;;21.45;32.77;96527.88;10380340;28;2404;-45
2022/04/28 14:57:04;;;;;;;;;;;;;;;21.37;32.86;96523.88;10372929;28;2250;-45
2022/04/28 15:02:04;;;;;;;;;;;;;;;21.36;32.92;96518.88;10377868;28;2432;-42
2022/04/28 15:07:05;;;;;;;;;;;;;;;21.36;32.80;96511.75;10377789;28;2211;-43
2022/04/28 15:12:09;;;;;;;;;;;;;;;21.32;33.04;96517.81;10397002;28;2297;-43
2022/04/28 15:17:10;;;;;;;;;;;;;;;21.31;33.28;96521.50;10379527;28;2253;-45
2022/04/28 15:22:10;;;;;;;;;;;;;;;21.29;33.22;96518.34;10400331;28;2148;-45
2022/04/28 15:27:11;;;;;;;;;;;;;;;21.25;33.06;96512.75;10395148;28;2227;-44
2022/04/28 15:32:12;;;;;;;;;;;;;;;21.22;33.10;96508.03;10399819;28;2184;-45
2022/04/28 15:37:15;;;;;;;;;;;;;;;21.23;33.20;96506.97;10389225;28;2232;-43
2022/04/28 15:42:15;;;;;;;;;;;;;;;21.25;33.21;96510.13;10389923;28;2306;-43
2022/04/28 15:47:16;;;;;;;;;;;;;;;21.22;33.48;96515.13;10400028;28;2211;-43
2022/04/28 15:52:16;;;;;;;;;;;;;;;21.25;33.52;96509.34;10385064;28;2219;-45
2022/04/28 15:57:17;;;;;;;;;;;;;;;21.26;33.50;96521.47;10375720;28;2331;-46
2022/04/28 16:02:17;;;;;;;;;;;;;;;21.23;33.45;96516.72;10371115;28;2077;-44
2022/04/28 16:07:18;;;;;;;;;;;;;;;21.25;33.44;96518.03;10378910;28;2301;-45
2022/04/28 16:12:19;;;;;;;;;;;;;;;21.27;33.26;96525.72;10405682;28;2239;-48
2022/04/28 16:17:19;;;;;;;;;;;;;;;21.29;33.20;96520.97;10406025;28;2228;-45
2022/04/28 16:22:20;;;;;;;;;;;;;;;21.30;33.17;96531.25;10399899;28;2243;-46
2022/04/28 16:27:21;;;;;;;;;;;;;;;21.33;32.81;96516.75;10395040;28;2238;-44
2022/04/28 16:32:23;;;;;;;;;;;;;;;21.34;32.70;96518.34;10392451;28;2129;-48
2022/04/28 16:37:23;;;;;;;;;;;;;;;21.33;32.18;96516.75;10376432;28;2249;-48
2022/04/28 16:42:24;;;;;;;;;;;;;;;21.34;32.04;96507.78;10380626;28;2295;-44
2022/04/28 16:47:24;;;;;;;;;;;;;;;21.36;32.18;96510.97;10391757;28;2112;-46
2022/04/28 16:52:24;;;;;;;;;;;;;;;21.40;32.00;96517.28;10387955;28;2361;-45
2022/04/28 16:57:24;;;;;;;;;;;;;;;21.39;31.53;96527.03;10387813;28;2194;-49
2022/04/28 17:02:26;;;;;;;;;;;;;;;21.43;31.56;96532.63;10371803;28;2223;-44
2022/04/28 17:07:27;;;;;;;;;;;;;;;21.37;30.95;96520.47;10380579;28;2258;-47
2022/04/28 17:12:28;;;;;;;;;;;;;;;21.37;30.83;96533.66;10374815;28;2157;-45
2022/04/28 17:17:29;;;;;;;;;;;;;;;21.44;31.01;96544.72;10381670;28;2199;-48
2022/04/28 17:22:29;;;;;;;;;;;;;;;21.48;31.82;96556.34;10394899;28;2282;-50
2022/04/28 17:27:31;;;;;;;;;;;;;;;21.37;30.64;96554.75;10394276;28;2180;-44
2022/04/28 17:32:32;;;;;;;;;;;;;;;21.34;30.78;96566.59;10393444;28;2089;-46
2022/04/28 17:37:33;;;;;;;;;;;;;;;21.31;30.10;96564.47;10397082;28;2310;-45
2022/04/28 17:42:33;;;;;;;;;;;;;;;21.27;29.95;96567.91;10392706;28;2156;-46
2022/04/28 17:47:34;;;;;;;;;;;;;;;21.23;29.72;96570.25;10392747;28;2309;-44
2022/04/28 17:52:36;;;;;;;;;;;;;;;21.23;29.82;96574.72;10389701;28;2243;-44
2022/04/28 18:02:55;;;;;;;;;;;;;;;21.24;29.22;96581.59;10380575;28;2216;-47
2022/04/28 18:07:56;;;;;;;;;;;;;;;21.19;29.14;96577.09;10384570;28;2251;-50
2022/04/28 18:12:56;;;;;;;;;;;;;;;21.22;29.34;96583.69;10380395;28;2177;-48
2022/04/28 18:17:58;;;;;;;;;;;;;;;21.25;29.71;96591.06;10368513;28;2210;-45
2022/04/28 18:22:59;;;;;;;;;;;;;;;21.20;29.13;96591.06;10383352;28;2367;-46
2022/04/28 18:28:00;;;;;;;;;;;;;;;21.17;28.96;96596.84;10386748;28;2180;-42
2022/04/28 18:33:00;;;;;;;;;;;;;;;21.18;29.00;96603.72;10413422;28;2223;-43
2022/04/28 18:48:39;;;;;;;;;;;;;;;21.33;29.86;96620.38;10394785;28;2140;-44
2022/04/28 18:53:39;;;;;;;;;;;;;;;21.46;30.19;96627.84;10394930;28;2282;-42
2022/04/28 18:58:39;;;;;;;;;;;;;;;21.60;30.54;96638.69;10388174;28;2211;-42
2022/04/28 19:03:42;;;;;;;;;;;;;;;21.66;30.63;96642.94;10399933;28;2274;-43
2022/04/28 19:08:42;;;;;;;;;;;;;;;21.70;30.92;96650.09;10404587;28;2261;-45
2022/04/28 19:13:43;;;;;;;;;;;;;;;21.77;31.22;96655.13;10401304;28;1859;-42
2022/04/28 19:18:44;;;;;;;;;;;;;;;21.81;31.18;96661.47;10409006;28;1475;-42
2022/04/28 19:23:45;;;;;;;;;;;;;;;21.84;31.40;96661.00;10412590;28;1910;-47
2022/04/28 19:28:45;;;;;;;;;;;;;;;21.86;31.54;96672.09;10396009;28;1808;-42
2022/04/28 19:33:46;;;;;;;;;;;;;;;21.88;31.45;96668.09;10398964;28;1875;-48
2022/04/28 19:38:47;;;;;;;;;;;;;;;21.91;31.60;96669.44;10396024;28;1861;-49
2022/04/28 19:43:47;;;;;;;;;;;;;;;21.92;31.79;96672.88;10397861;28;1902;-46
2022/04/28 19:48:47;;;;;;;;;;;;;;;21.90;32.35;96675.78;10392207;28;1826;-46
2022/04/28 19:53:48;;;;;;;;;;;;;;;21.92;32.51;96673.69;10394697;28;1852;-44
2022/04/28 19:58:48;;;;;;;;;;;;;;;21.88;32.43;96677.91;10385782;28;1795;-45
2022/04/28 20:03:54;;;;;;;;;;;;;;;21.86;32.67;96675.50;10393389;28;1910;-46
2022/04/28 20:08:54;;;;;;;;;;;;;;;21.86;32.86;96677.38;10395892;28;1810;-47
2022/04/28 20:13:58;;;;;;;;;;;;;;;21.83;32.82;96675.22;10400221;28;1799;-43
2022/04/28 20:18:58;;;;;;;;;;;;;;;21.79;32.91;96680.22;10418288;28;1850;-47
2022/04/28 20:23:59;;;;;;;;;;;;;;;21.79;32.99;96676.78;10396166;28;1901;-47
2022/04/28 20:28:59;;;;;;;;;;;;;;;21.80;32.92;96678.38;10396927;28;1843;-44
2022/04/28 20:34:00;;;;;;;;;;;;;;;21.76;33.14;96680.72;10397102;28;1775;-42
2022/04/28 20:39:02;;;;;;;;;;;;;;;21.78;32.99;96680.47;10409809;28;1887;-42
2022/04/28 20:44:05;;;;;;;;;;;;;;;21.79;33.16;96682.84;10412893;28;1981;-43
2022/04/28 20:49:06;;;;;;;;;;;;;;;21.74;32.99;96688.09;10406778;28;1751;-44
2022/04/28 20:54:08;;;;;;;;;;;;;;;21.72;33.28;96689.44;10395152;28;2304;-46
2022/04/28 20:59:08;;;;;;;;;;;;;;;21.71;33.46;96682.53;10394535;28;1794;-44
2022/04/28 21:04:08;;;;;;;;;;;;;;;21.70;33.34;96686.25;10390767;28;1972;-42
2022/04/28 21:09:10;;;;;;;;;;;;;;;21.67;33.51;96681.47;10390719;28;1770;-45
2022/04/28 21:14:10;;;;;;;;;;;;;;;21.65;33.66;96675.66;10411115;28;1948;-46
2022/04/28 21:19:10;;;;;;;;;;;;;;;21.63;33.59;96680.41;10400194;28;1803;-44
2022/04/28 21:24:11;;;;;;;;;;;;;;;21.61;33.55;96682.50;10398484;28;1969;-43
2022/04/28 21:29:11;;;;;;;;;;;;;;;21.58;33.75;96683.00;10404384;28;1771;-44
2022/04/28 21:34:12;;;;;;;;;;;;;;;21.56;33.56;96679.84;10409577;28;1756;-43
2022/04/28 21:39:13;;;;;;;;;;;;;;;21.51;33.68;96682.47;10403430;28;1791;-46
2022/04/28 21:44:13;;;;;;;;;;;;;;;21.51;34.06;96688.53;10396264;28;1914;-44
2022/04/28 21:49:14;;;;;;;;;;;;;;;21.45;33.73;96679.00;10372861;28;1801;-45
2022/04/28 21:54:14;;;;;;;;;;;;;;;21.50;33.65;96675.59;10382939;28;1796;-46
2022/04/28 21:59:15;;;;;;;;;;;;;;;21.49;33.99;96679.28;10392698;28;1849;-46
2022/04/28 22:14:53;;;;;;;;;;;;;;;21.45;34.13;96675.59;10414622;28;1778;-44
2022/04/28 22:19:53;;;;;;;;;;;;;;;21.44;33.98;96676.63;10393325;28;1779;-44
2022/04/28 22:24:54;;;;;;;;;;;;;;;21.44;33.92;96681.91;10390583;28;1910;-44
2022/04/28 22:30:10;;;;;;;;;;;;;;;21.40;34.06;96676.34;10390841;28;1799;-45
2022/04/28 22:35:11;;;;;;;;;;;;;;;21.38;34.32;96682.91;10407695;28;1830;-48
2022/04/28 22:40:13;;;;;;;;;;;;;;;21.37;34.01;96681.34;10404552;28;1830;-48
2022/04/28 22:45:14;;;;;;;;;;;;;;;21.36;34.07;96672.63;10377031;28;1918;-43
2022/04/28 22:50:14;;;;;;;;;;;;;;;21.35;34.25;96678.16;10383771;28;1847;-43
2022/04/28 22:55:14;;;;;;;;;;;;;;;21.35;34.25;96673.66;10387029;28;1811;-44
2022/04/28 23:00:15;;;;;;;;;;;;;;;21.37;34.42;96673.44;10397154;28;1864;-44
2022/04/28 23:05:15;;;;;;;;;;;;;;;21.35;34.41;96672.91;10382881;28;1910;-43
2022/04/28 23:10:16;;;;;;;;;;;;;;;21.36;34.27;96667.34;10384608;28;1841;-46
2022/04/28 23:15:16;;;;;;;;;;;;;;;21.38;34.35;96661.81;10392831;28;1839;-47
2022/04/28 23:20:18;;;;;;;;;;;;;;;21.45;34.48;96665.03;10386292;28;1779;-45
2022/04/28 23:25:18;;;;;;;;;;;;;;;21.41;34.29;96656.03;10375070;28;1911;-43
2022/04/28 23:30:19;;;;;;;;;;;;;;;21.42;34.63;96653.16;10390669;28;1872;-45
2022/04/28 23:40:38;;;;;;;;;;;;;;;21.45;34.67;96641.28;10378720;28;1763;-44
2022/04/28 23:45:39;;;;;;;;;;;;;;;21.47;34.74;96642.63;10393684;28;1910;-43
2022/04/28 23:50:39;;;;;;;;;;;;;;;21.50;35.00;96636.03;10393153;28;1971;-44
2022/04/28 23:55:40;;;;;;;;;;;;;;;21.54;34.72;96642.38;10393290;28;1834;-45
